Time;durP1;ratioP1;P1;durP2;ratioP2;P2;SDS_P1;SDS_P2;PMS_P1;PMS_P2;Temp;Humidity;BMP_temperature;BMP_pressure;BME280_temperature;BME280_humidity;BME280_pressure;Samples;Min_cycle;Max_cycle;Signal;HPM_P1;HPM_P2
2021/12/06 00:00:28;;;;;;;29.87;15.83;;;5.50;1.00;;;;;;5058727;28;20936;-60
2021/12/06 00:02:58;;;;;;;34.03;15.70;;;5.60;1.00;;;;;;5061109;28;20605;-60
2021/12/06 00:05:26;;;;;;;28.23;16.50;;;5.70;1.00;;;;;;5057437;28;20442;-59
2021/12/06 00:07:53;;;;;;;27.80;16.73;;;5.70;1.00;;;;;;5054132;28;20785;-59
2021/12/06 00:10:19;;;;;;;29.63;18.10;;;5.60;1.00;;;;;;5062805;28;20453;-59
2021/12/06 00:12:45;;;;;;;33.13;15.53;;;5.50;1.00;;;;;;5060184;28;20451;-59
2021/12/06 00:15:12;;;;;;;29.90;16.27;;;5.40;1.00;;;;;;5054473;28;20195;-59
2021/12/06 00:17:38;;;;;;;29.33;14.40;;;5.50;1.00;;;;;;5055547;28;20212;-59
2021/12/06 00:20:09;;;;;;;33.93;17.23;;;5.50;1.00;;;;;;5063651;28;20434;-60
2021/12/06 00:22:35;;;;;;;30.63;18.10;;;5.50;1.00;;;;;;5065842;28;20196;-60
2021/12/06 00:25:01;;;;;;;28.20;15.50;;;;;;;;;;5062806;28;20572;-59
2021/12/06 00:27:27;;;;;;;29.53;16.60;;;5.40;1.00;;;;;;5060146;28;20334;-60
2021/12/06 00:29:53;;;;;;;34.93;17.90;;;5.40;1.00;;;;;;5058012;28;20446;-58
2021/12/06 00:32:21;;;;;;;27.57;16.23;;;5.20;1.00;;;;;;5054322;28;20685;-58
2021/12/06 00:34:47;;;;;;;28.80;15.20;;;5.00;1.00;;;;;;5054294;28;20453;-59
2021/12/06 00:37:30;;;;;;;26.07;15.07;;;5.10;1.00;;;;;;5060905;28;21181;-59
2021/12/06 00:39:59;;;;;;;30.03;14.50;;;5.10;1.00;;;;;;5062621;28;20440;-58
2021/12/06 00:42:31;;;;;;;27.07;16.70;;;5.10;1.00;;;;;;5050665;28;20464;-58
2021/12/06 00:44:57;;;;;;;28.77;14.57;;;5.10;1.00;;;;;;5063111;28;20479;-60
2021/12/06 00:47:22;;;;;;;29.77;15.87;;;5.10;1.00;;;;;;5058195;28;20967;-59
2021/12/06 00:49:50;;;;;;;27.03;14.30;;;5.00;1.00;;;;;;5056992;28;20415;-59
2021/12/06 00:52:16;;;;;;;27.97;15.20;;;5.00;1.00;;;;;;5056487;28;20260;-60
2021/12/06 00:54:42;;;;;;;26.37;15.53;;;4.90;1.00;;;;;;5061397;28;21001;-59
2021/12/06 00:57:09;;;;;;;24.20;14.77;;;5.00;1.00;;;;;;5057260;28;20453;-59
2021/12/06 00:59:36;;;;;;;28.60;14.80;;;5.00;1.00;;;;;;5064944;28;20444;-59
2021/12/06 01:02:04;;;;;;;29.57;14.77;;;4.90;1.00;;;;;;5053714;28;20475;-59
2021/12/06 01:04:32;;;;;;;26.13;14.50;;;4.90;1.00;;;;;;5056260;28;20460;-57
2021/12/06 01:06:58;;;;;;;26.27;14.33;;;4.70;1.00;;;;;;5057026;28;20447;-57
2021/12/06 01:09:24;;;;;;;28.00;14.20;;;4.70;1.00;;;;;;5052636;28;20524;-57
2021/12/06 01:11:50;;;;;;;24.67;13.73;;;4.80;1.00;;;;;;5058494;28;20791;-59
2021/12/06 01:14:18;;;;;;;28.27;13.87;;;4.90;1.00;;;;;;5056084;28;20461;-59
2021/12/06 01:16:43;;;;;;;26.50;15.60;;;4.80;1.00;;;;;;5057471;28;20963;-57
2021/12/06 01:19:09;;;;;;;28.77;15.63;;;4.90;1.00;;;;;;5056463;28;20471;-59
2021/12/06 01:24:13;;;;;;;28.17;14.87;;;5.00;1.00;;;;;;5065108;28;20187;-59
2021/12/06 01:27:03;;;;;;;27.60;14.90;;;;;;;;;;5056581;28;20467;-57
2021/12/06 01:32:15;;;;;;;24.93;14.33;;;4.80;1.00;;;;;;5054676;28;20445;-58
2021/12/06 01:40:08;;;;;;;34.83;17.07;;;4.90;1.00;;;;;;5058199;28;20502;-58
2021/12/06 01:42:33;;;;;;;36.47;19.07;;;4.90;1.00;;;;;;5055071;28;20546;-58
2021/12/06 01:44:59;;;;;;;32.30;18.30;;;4.90;1.00;;;;;;5057949;28;20528;-58
2021/12/06 01:47:29;;;;;;;31.53;17.40;;;5.00;1.00;;;;;;5061978;28;20230;-57
2021/12/06 01:50:01;;;;;;;30.57;16.20;;;4.90;1.00;;;;;;5059528;28;20661;-58
2021/12/06 01:52:38;;;;;;;33.27;18.40;;;4.90;1.00;;;;;;5058870;28;20465;-58
2021/12/06 01:55:08;;;;;;;37.50;21.97;;;5.10;1.00;;;;;;5060041;28;20989;-56
2021/12/06 01:57:34;;;;;;;36.73;18.40;;;5.10;1.00;;;;;;5058293;28;20473;-56
2021/12/06 02:00:00;;;;;;;42.30;20.60;;;5.10;1.00;;;;;;5060146;28;20457;-58
2021/12/06 02:02:28;;;;;;;38.07;20.30;;;5.10;1.00;;;;;;5056456;28;20466;-57
2021/12/06 02:04:54;;;;;;;29.73;17.37;;;5.00;1.00;;;;;;5055987;28;20449;-58
2021/12/06 02:07:23;;;;;;;36.70;19.00;;;4.70;1.00;;;;;;5055330;28;20442;-56
2021/12/06 02:09:50;;;;;;;39.37;20.50;;;4.80;1.00;;;;;;5053783;28;20442;-58
2021/12/06 02:12:17;;;;;;;39.33;20.23;;;4.80;1.00;;;;;;5056434;28;20468;-57
2021/12/06 02:14:57;;;;;;;35.20;21.03;;;4.90;1.00;;;;;;5052470;28;20462;-59
2021/12/06 02:17:28;;;;;;;38.60;20.17;;;5.00;1.00;;;;;;5061881;28;20435;-57
2021/12/06 02:20:01;;;;;;;39.00;19.73;;;5.00;1.00;;;;;;5058548;28;20442;-58
2021/12/06 02:22:29;;;;;;;40.47;19.97;;;5.00;1.00;;;;;;5055107;28;20472;-58
2021/12/06 02:24:56;;;;;;;41.87;20.60;;;5.00;1.00;;;;;;5054547;28;20580;-57
2021/12/06 02:27:24;;;;;;;40.67;21.23;;;4.70;1.00;;;;;;5051940;28;20473;-58
2021/12/06 02:29:52;;;;;;;36.33;18.80;;;4.50;1.00;;;;;;5060885;28;20438;-57
2021/12/06 02:32:18;;;;;;;41.67;20.67;;;4.40;1.00;;;;;;5056372;28;20450;-57
2021/12/06 02:34:48;;;;;;;36.40;20.70;;;4.10;1.00;;;;;;5050866;28;20823;-58
2021/12/06 02:37:17;;;;;;;35.20;20.00;;;4.10;1.00;;;;;;5062362;28;20508;-57
2021/12/06 02:39:43;;;;;;;35.33;19.80;;;4.20;1.00;;;;;;5047506;28;20544;-57
2021/12/06 02:42:11;;;;;;;38.90;22.33;;;4.20;1.00;;;;;;5054265;28;20558;-57
2021/12/06 02:44:38;;;;;;;38.30;19.90;;;4.40;1.00;;;;;;5059886;28;20540;-57
2021/12/06 02:47:05;;;;;;;38.30;20.27;;;4.40;1.00;;;;;;5054678;28;20449;-56
2021/12/06 02:49:30;;;;;;;38.67;21.03;;;4.40;1.00;;;;;;5053532;28;20463;-57
2021/12/06 02:51:56;;;;;;;46.30;20.97;;;4.50;1.00;;;;;;5054347;28;20445;-56
2021/12/06 02:54:23;;;;;;;34.70;19.63;;;4.50;1.00;;;;;;5059121;28;20190;-57
2021/12/06 02:57:18;;;;;;;34.90;19.40;;;4.60;1.00;;;;;;5060879;28;20539;-57
2021/12/06 02:59:45;;;;;;;40.77;20.90;;;4.60;1.00;;;;;;5055497;28;20436;-57
2021/12/06 03:02:15;;;;;;;37.73;21.20;;;4.50;1.00;;;;;;5054525;28;20453;-59
2021/12/06 03:04:42;;;;;;;46.20;22.00;;;4.50;1.00;;;;;;5057027;28;20442;-57
2021/12/06 03:07:09;;;;;;;41.07;21.50;;;4.60;1.00;;;;;;5060544;28;20417;-57
2021/12/06 03:09:37;;;;;;;39.70;19.70;;;4.60;1.00;;;;;;5053663;28;20442;-57
2021/12/06 03:12:09;;;;;;;35.97;19.80;;;4.70;1.00;;;;;;5057955;28;20456;-57
2021/12/06 03:14:42;;;;;;;48.03;23.37;;;4.70;1.00;;;;;;5060572;28;20449;-56
2021/12/06 03:17:11;;;;;;;37.93;19.20;;;1.80;1.00;;;;;;5052696;28;20455;-57
2021/12/06 03:19:38;;;;;;;40.37;20.90;;;4.80;1.00;;;;;;5055668;28;20451;-57
2021/12/06 03:22:06;;;;;;;35.17;19.77;;;4.70;1.00;;;;;;5054376;28;20968;-58
2021/12/06 03:24:31;;;;;;;35.30;18.57;;;4.70;1.00;;;;;;5059600;28;20545;-58
2021/12/06 03:26:57;;;;;;;37.37;19.30;;;4.50;1.00;;;;;;5049860;28;20895;-57
2021/12/06 03:29:23;;;;;;;35.33;18.60;;;4.40;1.00;;;;;;5059568;28;20195;-56
2021/12/06 03:31:49;;;;;;;36.73;19.20;;;4.20;1.00;;;;;;5056162;28;20191;-58
2021/12/06 03:34:16;;;;;;;36.10;18.80;;;4.20;1.00;;;;;;5059411;28;20439;-57
2021/12/06 03:36:43;;;;;;;36.43;19.93;;;4.20;1.00;;;;;;5060769;28;20444;-58
2021/12/06 03:39:20;;;;;;;35.77;18.93;;;4.30;1.00;;;;;;5055865;28;20446;-58
2021/12/06 03:41:46;;;;;;;34.10;19.00;;;4.20;1.00;;;;;;5057643;28;20464;-57
2021/12/06 03:44:12;;;;;;;35.47;18.10;;;4.20;1.00;;;;;;5056761;28;20445;-56
2021/12/06 03:46:39;;;;;;;38.70;20.23;;;4.40;1.00;;;;;;5064291;28;20938;-58
2021/12/06 03:49:12;;;;;;;37.67;17.47;;;4.40;1.00;;;;;;5057572;28;20672;-58
2021/12/06 03:51:37;;;;;;;36.10;21.20;;;4.20;1.00;;;;;;5064542;28;20579;-58
2021/12/06 03:54:04;;;;;;;37.73;21.67;;;4.20;1.00;;;;;;5057923;28;20850;-58
2021/12/06 03:56:30;;;;;;;34.97;19.60;;;4.40;1.00;;;;;;5049864;28;20439;-58
2021/12/06 03:58:55;;;;;;;38.17;21.97;;;4.30;1.00;;;;;;5050143;28;20453;-56
2021/12/06 04:01:21;;;;;;;35.13;19.80;;;4.30;1.00;;;;;;5057917;28;20201;-58
2021/12/06 04:03:47;;;;;;;32.17;18.47;;;4.30;1.00;;;;;;5057039;28;20290;-56
2021/12/06 04:06:14;;;;;;;30.17;19.33;;;4.30;1.00;;;;;;5053974;28;20444;-56
2021/12/06 04:08:40;;;;;;;31.40;19.50;;;4.30;1.00;;;;;;5059670;28;20199;-56
2021/12/06 04:11:06;;;;;;;34.73;20.70;;;4.40;1.00;;;;;;5055386;28;20453;-57
2021/12/06 04:13:32;;;;;;;32.33;20.50;;;4.40;1.00;;;;;;5062110;28;20253;-57
2021/12/06 04:15:57;;;;;;;29.37;19.00;;;4.60;1.00;;;;;;5058991;28;20461;-57
2021/12/06 04:18:23;;;;;;;31.87;20.47;;;4.60;1.00;;;;;;5058999;28;20651;-59
2021/12/06 04:20:49;;;;;;;30.03;19.27;;;4.60;1.00;;;;;;5059387;28;20198;-58
2021/12/06 04:23:15;;;;;;;34.50;20.70;;;4.50;1.00;;;;;;5062440;28;20281;-58
2021/12/06 04:25:41;;;;;;;33.97;21.37;;;4.50;1.00;;;;;;5060676;28;20634;-58
2021/12/06 04:28:08;;;;;;;34.03;20.10;;;4.40;1.00;;;;;;5059404;28;20853;-56
2021/12/06 04:30:38;;;;;;;35.57;20.00;;;4.30;1.00;;;;;;5057189;28;20533;-57
2021/12/06 04:33:05;;;;;;;34.53;21.80;;;4.20;1.00;;;;;;5056383;28;20448;-58
2021/12/06 04:35:32;;;;;;;40.77;22.80;;;4.10;1.00;;;;;;5049136;28;20544;-55
2021/12/06 04:37:58;;;;;;;37.83;22.20;;;4.10;1.00;;;;;;5052645;28;20478;-58
2021/12/06 04:40:27;;;;;;;31.50;20.70;;;4.10;1.00;;;;;;5055116;28;20455;-57
2021/12/06 04:42:53;;;;;;;34.57;21.60;;;4.10;1.00;;;;;;5053867;28;20812;-57
2021/12/06 04:45:18;;;;;;;34.27;21.00;;;4.20;1.00;;;;;;5055673;28;20439;-57
2021/12/06 04:47:44;;;;;;;28.83;19.23;;;4.30;1.00;;;;;;5051539;28;20458;-57
2021/12/06 04:50:12;;;;;;;33.10;21.13;;;4.20;1.00;;;;;;5064476;28;20191;-57
2021/12/06 04:52:40;;;;;;;32.60;21.10;;;4.10;1.00;;;;;;5062749;28;20184;-58
2021/12/06 04:55:14;;;;;;;34.37;21.83;;;4.00;1.00;;;;;;5053797;28;20445;-58
2021/12/06 04:57:43;;;;;;;36.43;20.70;;;4.00;1.00;;;;;;5049498;28;20442;-59
2021/12/06 05:00:21;;;;;;;32.73;21.77;;;4.00;1.00;;;;;;5052191;28;20472;-56
2021/12/06 05:02:48;;;;;;;37.93;21.53;;;3.90;1.00;;;;;;5053124;28;20551;-57
2021/12/06 05:05:32;;;;;;;37.20;21.30;;;4.00;1.00;;;;;;5055660;28;20536;-57
2021/12/06 05:08:05;;;;;;;37.00;20.80;;;4.10;1.00;;;;;;5055809;28;20443;-58
2021/12/06 05:10:31;;;;;;;30.80;20.23;;;4.10;1.00;;;;;;5063088;28;20513;-56
2021/12/06 05:12:57;;;;;;;35.30;22.03;;;4.10;1.00;;;;;;5059474;28;20500;-58
2021/12/06 05:15:23;;;;;;;38.90;20.73;;;;;;;;;;5054600;28;20587;-61
2021/12/06 05:17:49;;;;;;;34.10;20.93;;;4.20;1.00;;;;;;5061119;28;20225;-60
2021/12/06 05:20:15;;;;;;;31.80;20.33;;;4.10;1.00;;;;;;5066856;28;20465;-58
2021/12/06 05:22:41;;;;;;;37.97;20.73;;;4.20;1.00;;;;;;5072189;28;20208;-59
2021/12/06 05:25:08;;;;;;;37.13;22.40;;;4.20;1.00;;;;;;5060277;28;20972;-59
2021/12/06 05:27:34;;;;;;;34.97;20.33;;;4.10;1.00;;;;;;5062669;28;20481;-58
2021/12/06 05:30:02;;;;;;;31.10;20.13;;;4.10;1.00;;;;;;5062133;28;20449;-59
2021/12/06 05:32:31;;;;;;;29.20;18.87;;;4.10;1.00;;;;;;5054442;28;20500;-57
2021/12/06 05:35:04;;;;;;;32.00;19.93;;;4.10;1.00;;;;;;5049287;28;20776;-58
2021/12/06 05:37:30;;;;;;;31.60;20.70;;;4.10;1.00;;;;;;5052117;28;20789;-58
2021/12/06 05:39:56;;;;;;;35.63;21.50;;;4.10;1.00;;;;;;5051449;28;20442;-56
2021/12/06 05:42:22;;;;;;;30.83;20.53;;;4.00;1.00;;;;;;5052553;28;20516;-58
2021/12/06 05:44:50;;;;;;;33.70;18.60;;;4.00;1.00;;;;;;5051824;28;20431;-57
2021/12/06 05:47:17;;;;;;;37.67;21.53;;;4.10;1.00;;;;;;5050159;28;20182;-59
2021/12/06 05:49:43;;;;;;;35.67;22.43;;;4.10;1.00;;;;;;5052068;28;20845;-58
2021/12/06 05:52:09;;;;;;;35.00;22.57;;;4.00;1.00;;;;;;5053275;28;20484;-57
2021/12/06 05:54:36;;;;;;;33.43;21.47;;;4.00;1.00;;;;;;5050454;28;20450;-59
2021/12/06 05:57:04;;;;;;;35.00;21.40;;;3.90;1.00;;;;;;5050449;28;20184;-60
2021/12/06 05:59:30;;;;;;;39.20;23.30;;;3.90;1.00;;;;;;5049982;28;20446;-58
2021/12/06 06:01:56;;;;;;;34.90;22.87;;;3.90;1.00;;;;;;5050182;28;20464;-60
2021/12/06 06:04:23;;;;;;;36.70;22.27;;;3.90;1.00;;;;;;5051439;28;20445;-59
2021/12/06 06:06:49;;;;;;;42.20;22.50;;;3.80;1.00;;;;;;5049162;28;20192;-58
2021/12/06 06:09:15;;;;;;;34.23;22.20;;;4.00;1.00;;;;;;5048497;28;20457;-59
2021/12/06 06:11:41;;;;;;;35.17;22.50;;;3.80;1.00;;;;;;5062160;28;20970;-59
2021/12/06 06:14:07;;;;;;;40.83;24.10;;;3.70;1.00;;;;;;5050158;28;20503;-57
2021/12/06 06:16:36;;;;;;;37.23;22.50;;;3.60;1.00;;;;;;5053502;28;20200;-58
2021/12/06 06:19:03;;;;;;;36.27;22.43;;;3.70;1.00;;;;;;5050629;28;20934;-58
2021/12/06 06:21:30;;;;;;;34.77;22.17;;;3.80;1.00;;;;;;5052101;28;20454;-58
2021/12/06 06:23:56;;;;;;;41.83;25.50;;;3.80;1.00;;;;;;5053339;28;20844;-57
2021/12/06 06:26:22;;;;;;;35.10;22.33;;;3.80;1.00;;;;;;5053456;28;20476;-61
2021/12/06 06:28:48;;;;;;;40.20;23.33;;;3.80;1.00;;;;;;5050921;28;20570;-58
2021/12/06 06:31:15;;;;;;;36.13;23.40;;;3.80;1.00;;;;;;5057963;28;20190;-59
2021/12/06 06:33:41;;;;;;;35.43;22.50;;;3.80;1.00;;;;;;5051239;28;20511;-59
2021/12/06 06:36:06;;;;;;;40.23;25.07;;;3.80;1.00;;;;;;5050277;28;20838;-58
2021/12/06 06:38:32;;;;;;;42.40;24.67;;;3.80;1.00;;;;;;5046578;28;20794;-59
2021/12/06 06:40:58;;;;;;;37.90;24.00;;;3.90;1.00;;;;;;5049820;28;20544;-58
2021/12/06 06:43:24;;;;;;;37.60;21.90;;;3.90;1.00;;;;;;5049667;28;20212;-59
2021/12/06 06:45:49;;;;;;;36.10;22.63;;;3.90;1.00;;;;;;5053076;28;20239;-60
2021/12/06 06:48:15;;;;;;;37.80;22.67;;;3.90;1.00;;;;;;5049593;28;20486;-58
2021/12/06 06:50:41;;;;;;;40.83;25.17;;;4.00;1.00;;;;;;5052377;28;20191;-57
2021/12/06 06:53:07;;;;;;;31.70;21.87;;;;;;;;;;5053092;28;20195;-59
2021/12/06 06:55:33;;;;;;;32.03;20.93;;;4.10;1.00;;;;;;5050526;28;20265;-59
2021/12/06 06:57:58;;;;;;;31.33;20.50;;;4.10;1.00;;;;;;5049603;28;20445;-60
2021/12/06 07:00:36;;;;;;;36.10;22.47;;;4.10;1.00;;;;;;5049023;28;20187;-58
2021/12/06 07:03:04;;;;;;;30.80;20.27;;;4.30;1.00;;;;;;5049125;28;20214;-60
2021/12/06 07:05:30;;;;;;;34.00;21.70;;;4.20;1.00;;;;;;5049721;28;20498;-59
2021/12/06 07:07:56;;;;;;;31.03;20.10;;;4.30;1.00;;;;;;5049245;28;20936;-59
2021/12/06 07:10:23;;;;;;;29.70;20.37;;;4.10;1.00;;;;;;5049054;28;20182;-59
2021/12/06 07:12:52;;;;;;;29.03;19.00;;;4.10;1.00;;;;;;5049789;28;20456;-58
2021/12/06 07:15:24;;;;;;;28.37;19.80;;;4.10;1.00;;;;;;5049351;28;20464;-59
2021/12/06 07:17:51;;;;;;;30.53;19.50;;;4.30;1.00;;;;;;5049606;28;20449;-58
2021/12/06 07:20:20;;;;;;;28.13;18.03;;;4.20;1.00;;;;;;5052287;28;20445;-60
2021/12/06 07:22:47;;;;;;;29.50;19.80;;;4.20;1.00;;;;;;5049401;28;20472;-59
2021/12/06 07:25:14;;;;;;;27.00;18.70;;;4.20;1.00;;;;;;5049033;28;20809;-58
2021/12/06 07:27:40;;;;;;;27.63;17.60;;;;;;;;;;5048857;28;20490;-59
2021/12/06 07:30:07;;;;;;;25.70;18.03;;;4.20;1.00;;;;;;5048960;28;20445;-58
2021/12/06 07:32:33;;;;;;;24.67;18.10;;;4.20;1.00;;;;;;5048514;28;20451;-58
2021/12/06 07:34:59;;;;;;;26.43;19.50;;;4.20;1.00;;;;;;5049461;28;20453;-57
2021/12/06 07:37:24;;;;;;;24.13;16.43;;;4.20;1.00;;;;;;5048746;28;20202;-59
2021/12/06 07:39:50;;;;;;;26.17;18.07;;;4.10;1.00;;;;;;5049408;28;20677;-58
2021/12/06 07:42:16;;;;;;;22.20;16.37;;;4.10;1.00;;;;;;5049174;28;20215;-58
2021/12/06 07:44:43;;;;;;;23.93;16.43;;;4.10;1.00;;;;;;5049486;28;20943;-58
2021/12/06 07:47:11;;;;;;;22.73;15.37;;;4.10;1.00;;;;;;5047330;28;20496;-59
2021/12/06 07:49:37;;;;;;;20.77;15.70;;;4.10;1.00;;;;;;5049390;28;20490;-58
2021/12/06 07:52:04;;;;;;;22.80;16.20;;;4.30;1.00;;;;;;5048678;28;20485;-59
2021/12/06 07:54:29;;;;;;;23.67;16.27;;;4.20;1.00;;;;;;5049051;28;20591;-59
2021/12/06 07:56:55;;;;;;;23.83;16.40;;;4.20;1.00;;;;;;5052167;28;20441;-59
2021/12/06 07:59:21;;;;;;;26.97;17.50;;;4.20;1.00;;;;;;5052867;28;20205;-58
2021/12/06 08:01:47;;;;;;;27.20;16.90;;;4.10;1.00;;;;;;5049381;28;20703;-59
2021/12/06 08:04:12;;;;;;;26.07;16.33;;;4.20;1.00;;;;;;5048712;28;20215;-58
2021/12/06 08:06:38;;;;;;;27.03;17.07;;;4.30;1.00;;;;;;5048873;28;20445;-59
2021/12/06 08:09:05;;;;;;;21.57;14.67;;;4.40;1.00;;;;;;5050421;28;20186;-59
2021/12/06 08:11:31;;;;;;;28.10;17.40;;;4.40;1.00;;;;;;5052807;28;20260;-59
2021/12/06 08:13:56;;;;;;;22.20;15.63;;;4.50;1.00;;;;;;5050507;28;20540;-60
2021/12/06 08:16:32;;;;;;;25.30;16.63;;;4.40;1.00;;;;;;5052452;28;20642;-58
2021/12/06 08:18:59;;;;;;;23.40;16.03;;;4.50;1.00;;;;;;5052774;28;20189;-58
2021/12/06 08:21:25;;;;;;;23.10;16.37;;;4.40;1.00;;;;;;5052539;28;20484;-58
2021/12/06 08:23:53;;;;;;;25.03;16.10;;;4.50;1.00;;;;;;5051412;28;20481;-57
2021/12/06 08:26:21;;;;;;;21.50;14.93;;;4.50;1.00;;;;;;5051503;28;20469;-59
2021/12/06 08:28:48;;;;;;;23.50;16.40;;;4.60;1.00;;;;;;5051122;28;20449;-57
2021/12/06 08:31:15;;;;;;;21.63;15.57;;;4.40;1.00;;;;;;5052536;28;21015;-58
2021/12/06 08:33:41;;;;;;;26.20;17.73;;;4.30;1.00;;;;;;5050184;28;21207;-60
2021/12/06 08:36:08;;;;;;;25.70;18.53;;;4.20;1.00;;;;;;5052622;28;20844;-60
2021/12/06 08:38:35;;;;;;;34.83;19.90;;;4.10;1.00;;;;;;5052179;28;20927;-58
2021/12/06 08:41:03;;;;;;;32.37;21.33;;;4.00;1.00;;;;;;5052122;28;20435;-60
2021/12/06 08:43:31;;;;;;;56.50;31.67;;;;;;;;;;5050084;28;20475;-60
2021/12/06 08:46:01;;;;;;;46.43;26.23;;;3.90;1.00;;;;;;5051882;28;20436;-59
2021/12/06 08:48:30;;;;;;;35.20;21.20;;;3.90;1.00;;;;;;5051537;28;20478;-61
2021/12/06 08:50:59;;;;;;;37.30;22.93;;;3.90;1.00;;;;;;5060517;28;20459;-59
2021/12/06 08:53:25;;;;;;;42.50;26.40;;;4.00;1.00;;;;;;5051963;28;20542;-59
2021/12/06 08:55:51;;;;;;;35.03;21.57;;;3.90;1.00;;;;;;5051984;28;20599;-57
2021/12/06 08:58:18;;;;;;;36.17;22.77;;;4.30;1.00;;;;;;5050666;28;20185;-59
2021/12/06 09:00:44;;;;;;;30.37;21.43;;;4.50;1.00;;;;;;5051438;28;20450;-58
2021/12/06 09:03:10;;;;;;;39.77;23.30;;;4.50;1.00;;;;;;5051263;28;20473;-56
2021/12/06 09:05:41;;;;;;;46.57;27.53;;;4.50;1.00;;;;;;5050624;28;20450;-58
2021/12/06 09:08:09;;;;;;;32.27;20.40;;;4.60;1.00;;;;;;5050803;28;20439;-58
2021/12/06 09:10:35;;;;;;;28.97;17.40;;;4.70;1.00;;;;;;5050520;28;20451;-58
2021/12/06 09:13:02;;;;;;;26.63;18.47;;;4.50;1.00;;;;;;5051660;28;20530;-57
2021/12/06 09:15:30;;;;;;;28.47;17.70;;;4.60;1.00;;;;;;5051784;28;20438;-57
2021/12/06 09:17:57;;;;;;;32.83;18.87;;;4.80;1.00;;;;;;5049837;28;20439;-56
2021/12/06 09:20:29;;;;;;;32.83;18.60;;;5.10;1.00;;;;;;5050227;28;20457;-59
2021/12/06 09:22:55;;;;;;;37.37;23.17;;;5.30;1.00;;;;;;5051244;28;20497;-56
2021/12/06 09:25:21;;;;;;;38.57;21.37;;;5.30;1.00;;;;;;5051583;28;20438;-57
2021/12/06 09:27:48;;;;;;;30.73;19.17;;;5.60;1.00;;;;;;5067162;28;20461;-58
2021/12/06 09:30:18;;;;;;;31.07;19.30;;;5.70;1.00;;;;;;5058414;28;20654;-58
2021/12/06 09:32:45;;;;;;;33.13;22.37;;;5.70;1.00;;;;;;5051683;28;20443;-59
2021/12/06 09:35:14;;;;;;;33.00;21.83;;;5.70;1.00;;;;;;5051361;28;21128;-57
2021/12/06 09:37:43;;;;;;;31.77;21.13;;;6.00;1.00;;;;;;5051700;28;20547;-57
2021/12/06 09:40:10;;;;;;;32.93;21.63;;;5.90;1.00;;;;;;5051304;28;20434;-57
2021/12/06 09:42:37;;;;;;;34.80;20.47;;;5.90;1.00;;;;;;5050877;28;20779;-57
2021/12/06 09:45:07;;;;;;;31.83;20.73;;;5.80;1.00;;;;;;5050666;28;20831;-56
2021/12/06 09:47:34;;;;;;;33.77;20.10;;;5.70;1.00;;;;;;5050841;28;20929;-57
2021/12/06 09:50:01;;;;;;;29.17;20.57;;;5.60;1.00;;;;;;5051160;28;20470;-57
2021/12/06 09:52:27;;;;;;;36.17;22.23;;;5.70;1.00;;;;;;5050772;28;20529;-58
2021/12/06 09:54:52;;;;;;;36.80;22.43;;;5.60;1.00;;;;;;5051167;28;20548;-58
2021/12/06 09:57:19;;;;;;;39.70;23.10;;;5.30;1.00;;;;;;5049673;28;22576;-58
2021/12/06 09:59:45;;;;;;;35.50;21.13;;;5.20;1.00;;;;;;5051201;28;20427;-58
2021/12/06 10:02:17;;;;;;;31.90;21.90;;;5.20;1.00;;;;;;5050830;28;20516;-58
2021/12/06 10:04:50;;;;;;;38.60;22.70;;;5.30;1.00;;;;;;5050828;28;20439;-56
2021/12/06 10:07:16;;;;;;;36.40;22.93;;;5.30;1.00;;;;;;5054254;28;20474;-58
2021/12/06 10:09:43;;;;;;;34.77;22.37;;;5.10;1.00;;;;;;5070742;28;20450;-57
2021/12/06 10:12:09;;;;;;;39.27;25.10;;;5.00;1.00;;;;;;5059573;28;20471;-57
2021/12/06 10:14:37;;;;;;;37.53;23.27;;;4.90;1.00;;;;;;5050376;28;20769;-57
2021/12/06 10:17:05;;;;;;;39.60;25.13;;;4.90;1.00;;;;;;5049407;28;20545;-56
2021/12/06 10:19:32;;;;;;;41.13;25.10;;;4.90;1.00;;;;;;5050402;28;20809;-58
2021/12/06 10:21:57;;;;;;;39.53;24.00;;;4.80;1.00;;;;;;5050883;28;20453;-56
2021/12/06 10:24:27;;;;;;;36.67;23.80;;;4.70;1.00;;;;;;5060647;28;20472;-56
2021/12/06 10:27:16;;;;;;;37.53;23.03;;;4.80;1.00;;;;;;5051130;28;20224;-58
2021/12/06 10:29:52;;;;;;;35.93;24.03;;;4.80;1.00;;;;;;5050114;28;20543;-56
2021/12/06 10:32:22;;;;;;;34.77;22.43;;;4.70;1.00;;;;;;5054406;28;20481;-59
2021/12/06 10:34:54;;;;;;;34.60;21.20;;;4.70;1.00;;;;;;5061817;28;20449;-58
2021/12/06 10:37:45;;;;;;;42.57;23.97;;;4.60;1.00;;;;;;5049891;28;20474;-57
2021/12/06 10:40:18;;;;;;;33.73;22.37;;;4.70;1.00;;;;;;5050329;28;20498;-57
2021/12/06 10:42:45;;;;;;;36.43;22.83;;;4.80;1.00;;;;;;5050896;28;20788;-57
2021/12/06 10:45:16;;;;;;;40.00;24.20;;;4.80;1.00;;;;;;5053759;28;20446;-57
2021/12/06 10:47:43;;;;;;;42.23;25.53;;;4.80;1.00;;;;;;5051471;28;20450;-58
2021/12/06 10:50:15;;;;;;;41.00;25.30;;;4.80;1.00;;;;;;5049496;28;20434;-55
2021/12/06 10:52:52;;;;;;;37.80;22.80;;;4.80;1.00;;;;;;5049091;28;20454;-59
2021/12/06 10:55:20;;;;;;;42.70;25.03;;;4.70;1.00;;;;;;5046123;28;20448;-58
2021/12/06 10:57:55;;;;;;;37.40;24.27;;;4.70;1.00;;;;;;5047968;28;20454;-56
2021/12/06 11:00:36;;;;;;;39.07;23.80;;;4.80;1.00;;;;;;5049729;28;20439;-57
2021/12/06 11:03:02;;;;;;;32.33;21.50;;;4.90;1.00;;;;;;5050471;28;20464;-56
2021/12/06 11:05:31;;;;;;;40.33;23.80;;;5.00;1.00;;;;;;5050215;28;20943;-58
2021/12/06 11:08:17;;;;;;;37.07;22.97;;;5.10;1.00;;;;;;5048559;28;20450;-58
2021/12/06 11:10:48;;;;;;;35.30;22.63;;;5.10;1.00;;;;;;5049618;28;20441;-57
2021/12/06 11:13:27;;;;;;;37.03;23.60;;;5.30;1.00;;;;;;5049604;28;20431;-56
2021/12/06 11:15:59;;;;;;;32.90;22.53;;;5.10;1.00;;;;;;5049341;28;20426;-56
2021/12/06 11:18:53;;;;;;;35.10;23.07;;;5.00;1.00;;;;;;5048687;28;20439;-58
2021/12/06 11:21:45;;;;;;;34.40;23.20;;;4.90;1.00;;;;;;5047461;28;20446;-58
2021/12/06 11:24:26;;;;;;;38.23;24.17;;;4.70;1.00;;;;;;5049656;28;20477;-57
2021/12/06 11:27:09;;;;;;;35.10;22.27;;;4.70;1.00;;;;;;5048067;28;20883;-56
2021/12/06 11:29:35;;;;;;;35.27;22.40;;;4.70;1.00;;;;;;5048872;28;20446;-59
2021/12/06 11:32:09;;;;;;;36.77;21.90;;;4.50;1.00;;;;;;5049770;28;20427;-59
2021/12/06 11:34:50;;;;;;;40.13;25.47;;;4.50;1.00;;;;;;5049889;28;20490;-58
2021/12/06 11:37:23;;;;;;;34.87;23.03;;;4.60;1.00;;;;;;5049047;28;20465;-58
2021/12/06 11:40:01;;;;;;;33.17;22.70;;;4.70;1.00;;;;;;5048910;28;20447;-58
2021/12/06 11:42:27;;;;;;;40.30;24.43;;;4.70;1.00;;;;;;5048977;28;20493;-57
2021/12/06 11:44:53;;;;;;;34.83;22.00;;;;;;;;;;5052270;28;20464;-58
2021/12/06 11:47:20;;;;;;;30.37;20.90;;;4.70;1.00;;;;;;5053673;28;20641;-57
2021/12/06 11:49:51;;;;;;;30.80;20.07;;;4.60;1.00;;;;;;5053435;28;20852;-57
2021/12/06 11:52:22;;;;;;;36.50;23.90;;;4.50;1.00;;;;;;5055698;28;20792;-56
2021/12/06 11:55:19;;;;;;;35.40;22.23;;;4.50;1.00;;;;;;5053250;28;20425;-58
2021/12/06 11:57:53;;;;;;;34.93;23.40;;;4.60;1.00;;;;;;5044908;28;20496;-57
2021/12/06 12:00:22;;;;;;;30.90;21.57;;;4.60;1.00;;;;;;5053155;28;20445;-57
2021/12/06 12:02:51;;;;;;;32.90;22.60;;;4.70;1.00;;;;;;5052913;28;20505;-60
2021/12/06 12:05:32;;;;;;;35.60;23.63;;;4.60;1.00;;;;;;5052434;28;20438;-58
2021/12/06 12:08:08;;;;;;;37.00;23.43;;;4.70;1.00;;;;;;5064587;28;20435;-57
2021/12/06 12:10:50;;;;;;;33.93;22.20;;;4.70;1.00;;;;;;5052281;28;20791;-57
2021/12/06 12:13:35;;;;;;;36.13;21.83;;;4.80;1.00;;;;;;5051465;28;20848;-58
2021/12/06 12:16:12;;;;;;;31.50;22.43;;;4.80;1.00;;;;;;5052605;28;21033;-58
2021/12/06 12:18:42;;;;;;;31.97;20.87;;;4.60;1.00;;;;;;5052122;28;20457;-57
2021/12/06 12:21:09;;;;;;;32.10;21.47;;;4.50;1.00;;;;;;5052509;28;20437;-56
2021/12/06 12:23:35;;;;;;;27.40;20.43;;;4.30;1.00;;;;;;5052812;28;20943;-57
2021/12/06 12:26:11;;;;;;;33.30;21.70;;;4.20;1.00;;;;;;5052609;28;20487;-55
2021/12/06 12:28:51;;;;;;;29.50;20.03;;;4.20;1.00;;;;;;5048132;28;20466;-56
2021/12/06 12:31:19;;;;;;;29.43;20.20;;;4.20;1.00;;;;;;5065174;28;20741;-55
2021/12/06 12:33:47;;;;;;;32.90;20.40;;;4.00;1.00;;;;;;5060310;28;20434;-57
2021/12/06 12:36:21;;;;;;;33.77;21.20;;;4.00;1.00;;;;;;5059537;28;20465;-55
2021/12/06 12:38:50;;;;;;;33.77;20.93;;;4.00;1.00;;;;;;5051553;28;20447;-57
2021/12/06 12:41:19;;;;;;;29.60;19.70;;;4.10;1.00;;;;;;5051694;28;20434;-55
2021/12/06 12:43:49;;;;;;;31.83;20.27;;;4.20;1.00;;;;;;5052050;28;20470;-55
2021/12/06 12:46:24;;;;;;;29.37;19.77;;;4.10;1.00;;;;;;5058029;28;20476;-56
2021/12/06 12:48:56;;;;;;;29.97;19.13;;;3.90;1.00;;;;;;5051528;28;20437;-56
2021/12/06 12:51:50;;;;;;;31.47;19.47;;;3.90;1.00;;;;;;5051396;28;20513;-58
2021/12/06 12:54:24;;;;;;;29.90;18.70;;;3.90;1.00;;;;;;5046063;28;20450;-56
2021/12/06 12:56:57;;;;;;;26.20;16.87;;;4.00;1.00;;;;;;5050826;28;20465;-56
2021/12/06 12:59:44;;;;;;;31.03;19.53;;;4.10;1.00;;;;;;5052007;28;20427;-56
2021/12/06 13:02:35;;;;;;;25.90;15.77;;;4.20;1.00;;;;;;5051610;28;20449;-55
2021/12/06 13:05:11;;;;;;;28.77;18.20;;;4.10;1.00;;;;;;5050353;28;20543;-55
2021/12/06 13:07:39;;;;;;;22.80;16.10;;;4.00;1.00;;;;;;5051030;28;20431;-57